createdAt,value
2022-10-21T00:00:51.458Z,99.54
2022-10-21T00:03:19.614Z,99.79
2022-10-21T00:05:47.615Z,100.00
2022-10-21T00:08:15.786Z,100.00
2022-10-21T00:10:43.155Z,100.00
2022-10-21T00:13:10.554Z,100.00
2022-10-21T00:15:37.725Z,100.00
2022-10-21T00:18:04.894Z,100.00
2022-10-21T00:20:33.731Z,100.00
2022-10-21T00:23:03.231Z,100.00
2022-10-21T00:25:30.356Z,100.00
2022-10-21T00:27:57.753Z,100.00
2022-10-21T00:30:24.858Z,100.00
2022-10-21T00:32:51.942Z,100.00
2022-10-21T00:35:19.022Z,100.00
2022-10-21T00:37:46.145Z,100.00
2022-10-21T00:40:14.430Z,100.00
2022-10-21T00:42:45.521Z,100.00
2022-10-21T00:45:24.311Z,100.00
2022-10-21T00:47:57.342Z,100.00
2022-10-21T00:50:38.736Z,100.00
2022-10-21T00:53:13.457Z,100.00
2022-10-21T00:55:46.543Z,100.00
2022-10-21T00:58:14.014Z,100.00
2022-10-21T01:00:41.199Z,100.00
2022-10-21T01:03:08.569Z,100.00
2022-10-21T01:05:39.068Z,100.00
2022-10-21T01:08:06.291Z,100.00
2022-10-21T01:10:33.871Z,100.00
2022-10-21T01:13:00.902Z,100.00
2022-10-21T01:15:45.641Z,100.00
2022-10-21T01:18:27.294Z,100.00
2022-10-21T01:21:08.330Z,100.00
2022-10-21T01:24:00.316Z,100.00
2022-10-21T01:26:36.211Z,100.00
2022-10-21T01:29:43.843Z,100.00
2022-10-21T01:32:32.435Z,100.00
2022-10-21T01:35:12.587Z,100.00
2022-10-21T01:38:01.223Z,100.00
2022-10-21T01:40:37.618Z,100.00
2022-10-21T01:43:16.952Z,100.00
2022-10-21T01:45:57.711Z,100.00
2022-10-21T01:48:30.787Z,100.00
2022-10-21T01:51:07.298Z,100.00
2022-10-21T01:53:43.604Z,100.00
2022-10-21T01:56:12.962Z,100.00
2022-10-21T01:58:44.237Z,100.00
2022-10-21T02:01:13.857Z,100.00
2022-10-21T02:03:45.754Z,100.00
2022-10-21T02:06:14.135Z,100.00
2022-10-21T02:08:42.789Z,100.00
2022-10-21T02:11:11.909Z,100.00
2022-10-21T02:13:48.450Z,100.00
2022-10-21T02:16:19.228Z,100.00
2022-10-21T02:18:46.325Z,100.00
2022-10-21T02:21:19.052Z,100.00
2022-10-21T02:24:02.851Z,100.00
2022-10-21T02:26:30.024Z,100.00
2022-10-21T02:28:58.907Z,100.00
2022-10-21T02:31:39.642Z,100.00
2022-10-21T02:34:15.807Z,100.00
2022-10-21T02:36:50.258Z,100.00
2022-10-21T02:39:25.344Z,100.00
2022-10-21T02:41:55.330Z,100.00
2022-10-21T02:44:22.762Z,100.00
2022-10-21T02:46:50.495Z,100.00
2022-10-21T02:49:17.654Z,100.00
2022-10-21T02:51:45.535Z,100.00
2022-10-21T02:54:13.837Z,100.00
2022-10-21T02:56:40.949Z,100.00
2022-10-21T02:59:08.423Z,100.00
2022-10-21T03:01:35.592Z,100.00
2022-10-21T03:04:02.758Z,100.00
2022-10-21T03:06:29.862Z,100.00
2022-10-21T03:08:57.101Z,100.00
2022-10-21T03:11:24.248Z,100.00
2022-10-21T03:13:51.346Z,100.00
2022-10-21T03:18:50.513Z,100.00
2022-10-21T03:21:17.616Z,100.00
2022-10-21T03:23:44.719Z,100.00
2022-10-21T03:26:11.879Z,100.00
2022-10-21T03:28:39.519Z,100.00
2022-10-21T03:31:06.648Z,100.00
2022-10-21T03:33:33.745Z,100.00
2022-10-21T03:36:00.867Z,100.00
2022-10-21T03:38:28.009Z,100.00
2022-10-21T03:40:55.218Z,100.00
2022-10-21T03:43:22.362Z,100.00
2022-10-21T03:45:49.503Z,100.00
2022-10-21T03:48:17.527Z,100.00
2022-10-21T03:50:44.641Z,100.00
2022-10-21T03:53:24.359Z,100.00
2022-10-21T03:55:58.858Z,100.00
2022-10-21T03:58:25.967Z,100.00
2022-10-21T04:00:53.532Z,100.00
2022-10-21T04:03:20.825Z,100.00
2022-10-21T04:05:47.970Z,100.00
2022-10-21T04:08:15.098Z,100.00
2022-10-21T04:10:42.226Z,100.00
2022-10-21T04:13:09.350Z,100.00
2022-10-21T04:15:36.577Z,100.00
2022-10-21T04:18:03.778Z,100.00
2022-10-21T04:20:30.894Z,100.00
2022-10-21T04:22:58.003Z,100.00
2022-10-21T04:25:25.159Z,100.00
2022-10-21T04:27:52.331Z,100.00
2022-10-21T04:30:19.423Z,100.00
2022-10-21T04:32:47.128Z,100.00
2022-10-21T04:35:14.208Z,100.00
2022-10-21T04:37:41.315Z,100.00
2022-10-21T04:40:09.191Z,100.00
2022-10-21T04:42:36.453Z,100.00
2022-10-21T04:45:03.909Z,100.00
2022-10-21T04:47:31.327Z,100.00
2022-10-21T04:49:58.439Z,100.00
2022-10-21T04:52:25.532Z,100.00
2022-10-21T04:54:52.695Z,100.00
2022-10-21T04:57:20.453Z,100.00
2022-10-21T04:59:47.625Z,100.00
2022-10-21T05:02:14.803Z,100.00
2022-10-21T05:04:41.898Z,100.00
2022-10-21T05:07:09.127Z,100.00
2022-10-21T05:09:36.238Z,100.00
2022-10-21T05:12:03.857Z,100.00
2022-10-21T05:14:31.000Z,100.00
2022-10-21T05:16:58.169Z,100.00
2022-10-21T05:19:28.986Z,100.00
2022-10-21T05:21:58.790Z,100.00
2022-10-21T05:24:26.173Z,100.00
2022-10-21T05:26:53.292Z,100.00
2022-10-21T05:29:20.383Z,100.00
2022-10-21T05:31:47.583Z,100.00
2022-10-21T05:34:14.675Z,100.00
2022-10-21T05:36:42.362Z,100.00
2022-10-21T05:39:11.446Z,100.00
2022-10-21T05:41:40.231Z,100.00
2022-10-21T05:44:09.171Z,100.00
2022-10-21T05:46:36.299Z,100.00
2022-10-21T05:49:03.724Z,100.00
2022-10-21T05:51:30.836Z,100.00
2022-10-21T05:53:58.214Z,100.00
2022-10-21T05:56:25.350Z,100.00
2022-10-21T05:58:52.520Z,100.00
2022-10-21T06:01:19.692Z,100.00
2022-10-21T06:03:47.071Z,100.00
2022-10-21T06:06:14.166Z,100.00
2022-10-21T06:08:41.325Z,100.00
2022-10-21T06:11:14.168Z,100.00
2022-10-21T06:13:41.571Z,100.00
2022-10-21T06:16:10.125Z,100.00
2022-10-21T06:18:37.713Z,100.00
2022-10-21T06:21:05.638Z,100.00
2022-10-21T06:23:33.557Z,100.00
2022-10-21T06:26:10.395Z,100.00
2022-10-21T06:28:39.111Z,100.00
2022-10-21T06:31:07.862Z,100.00
2022-10-21T06:33:35.589Z,100.00
2022-10-21T06:36:02.790Z,100.00
2022-10-21T06:38:32.143Z,100.00
2022-10-21T06:41:07.891Z,100.00
2022-10-21T06:43:38.111Z,100.00
2022-10-21T06:46:08.964Z,100.00
2022-10-21T06:48:36.263Z,100.00
2022-10-21T06:51:07.395Z,100.00
2022-10-21T06:53:38.951Z,100.00
2022-10-21T06:56:10.036Z,100.00
2022-10-21T06:58:39.768Z,100.00
2022-10-21T07:01:16.661Z,100.00
2022-10-21T07:03:55.334Z,100.00
2022-10-21T07:06:22.727Z,100.00
2022-10-21T07:08:57.933Z,100.00
2022-10-21T07:11:27.580Z,100.00
2022-10-21T07:13:54.877Z,100.00
2022-10-21T07:16:31.344Z,100.00
2022-10-21T07:18:58.587Z,100.00
2022-10-21T07:21:27.557Z,100.00
2022-10-21T07:23:57.914Z,100.00
2022-10-21T07:26:29.033Z,99.68
2022-10-21T07:28:58.263Z,98.67
2022-10-21T07:31:26.721Z,98.39
2022-10-21T07:33:54.221Z,98.67
2022-10-21T07:36:24.401Z,97.99
2022-10-21T07:38:53.857Z,96.70
2022-10-21T07:41:45.787Z,97.48
2022-10-21T07:44:14.071Z,96.85
2022-10-21T07:46:43.058Z,95.57
2022-10-21T07:49:11.695Z,95.93
2022-10-21T07:51:40.002Z,95.49
2022-10-21T07:54:07.814Z,95.04
2022-10-21T07:56:38.478Z,94.63
2022-10-21T07:59:10.192Z,93.98
2022-10-21T08:01:44.321Z,93.13
2022-10-21T08:04:15.399Z,93.08
2022-10-21T08:06:44.039Z,93.51
2022-10-21T08:09:11.732Z,92.31
2022-10-21T08:11:38.998Z,90.39
2022-10-21T08:14:08.672Z,90.36
2022-10-21T08:16:36.467Z,90.52
2022-10-21T08:19:04.649Z,90.75
2022-10-21T08:21:31.821Z,90.13
2022-10-21T08:24:02.261Z,89.46
2022-10-21T08:26:29.657Z,89.08
2022-10-21T08:31:28.764Z,89.01
2022-10-21T08:33:55.942Z,88.24
2022-10-21T08:36:25.885Z,87.87
2022-10-21T08:38:54.043Z,88.55
2022-10-21T08:41:31.204Z,87.88
2022-10-21T08:44:16.659Z,86.25
2022-10-21T08:47:24.905Z,86.74
2022-10-21T08:50:00.520Z,85.80
2022-10-21T08:52:49.606Z,86.65
2022-10-21T08:55:34.227Z,87.11
2022-10-21T08:58:02.289Z,86.20
2022-10-21T09:01:05.711Z,86.59
2022-10-21T09:03:54.325Z,86.95
2022-10-21T09:06:44.543Z,86.57
2022-10-21T09:09:24.252Z,86.65
2022-10-21T09:12:06.030Z,87.81
2022-10-21T09:14:50.201Z,88.03
2022-10-21T09:17:46.941Z,88.23
2022-10-21T09:20:45.012Z,87.39
2022-10-21T09:23:14.766Z,88.65
2022-10-21T09:26:01.946Z,88.98
2022-10-21T09:28:30.515Z,89.14
2022-10-21T09:31:00.857Z,89.58
2022-10-21T09:33:31.893Z,90.13
2022-10-21T09:36:04.650Z,89.93
2022-10-21T09:38:57.907Z,90.02
2022-10-21T09:41:33.039Z,90.78
2022-10-21T09:44:00.136Z,91.10
2022-10-21T09:46:27.437Z,91.09
2022-10-21T09:51:45.359Z,90.57
2022-10-21T09:54:19.870Z,91.07
2022-10-21T09:56:57.049Z,91.46
2022-10-21T09:59:29.107Z,91.53
2022-10-21T10:02:07.675Z,92.29
2022-10-21T10:04:35.962Z,91.81
2022-10-21T10:07:28.085Z,91.59
2022-10-21T10:09:55.219Z,92.22
2022-10-21T10:12:25.346Z,92.32
2022-10-21T10:14:52.805Z,93.19
2022-10-21T10:17:31.903Z,92.39
2022-10-21T10:20:04.895Z,91.71
2022-10-21T10:22:32.948Z,91.59
2022-10-21T10:25:12.030Z,92.79
2022-10-21T10:27:48.206Z,92.94
2022-10-21T10:30:16.892Z,92.13
2022-10-21T10:32:46.350Z,92.03
2022-10-21T10:35:33.973Z,93.01
2022-10-21T10:38:02.738Z,93.26
2022-10-21T10:40:39.570Z,93.96
2022-10-21T10:43:32.004Z,93.77
2022-10-21T10:46:02.035Z,93.91
2022-10-21T10:48:35.076Z,93.39
2022-10-21T10:51:07.076Z,93.76
2022-10-21T10:53:35.700Z,94.23
2022-10-21T10:56:24.491Z,94.95
2022-10-21T10:59:17.062Z,94.86
2022-10-21T11:02:02.535Z,95.24
2022-10-21T11:04:56.622Z,95.61
2022-10-21T11:07:45.159Z,95.91
2022-10-21T11:10:35.975Z,95.28
2022-10-21T11:13:11.150Z,95.30
2022-10-21T11:15:44.687Z,94.71
2022-10-21T11:18:27.586Z,95.00
2022-10-21T11:20:59.779Z,95.38
2022-10-21T11:23:29.623Z,94.45
2022-10-21T11:26:21.431Z,94.49
2022-10-21T11:29:01.378Z,93.09
2022-10-21T11:32:13.548Z,92.95
2022-10-21T11:35:05.192Z,93.42
2022-10-21T11:37:53.642Z,93.09
2022-10-21T11:40:37.494Z,93.28
2022-10-21T11:43:16.582Z,92.48
2022-10-21T11:45:58.297Z,93.01
2022-10-21T11:48:31.151Z,93.92
2022-10-21T11:51:16.468Z,93.92
2022-10-21T11:54:01.946Z,93.58
2022-10-21T11:56:50.570Z,95.00
2022-10-21T11:59:36.186Z,94.62
2022-10-21T12:02:33.331Z,93.91
2022-10-21T12:05:18.703Z,94.87
2022-10-21T12:07:51.842Z,94.99
2022-10-21T12:10:34.131Z,95.73
2022-10-21T12:13:13.528Z,95.82
2022-10-21T12:15:50.152Z,96.52
2022-10-21T12:18:20.558Z,96.38
2022-10-21T12:20:50.159Z,96.80
2022-10-21T12:23:22.054Z,97.16
2022-10-21T12:25:49.090Z,97.18
2022-10-21T12:28:35.685Z,97.02
2022-10-21T12:31:28.865Z,97.29
2022-10-21T12:33:56.948Z,97.17
2022-10-21T12:36:24.093Z,97.16
2022-10-21T12:38:56.463Z,96.23
2022-10-21T12:41:23.488Z,97.15
2022-10-21T12:44:02.972Z,97.60
2022-10-21T12:46:40.323Z,97.03
2022-10-21T12:49:10.573Z,97.66
2022-10-21T12:51:39.188Z,97.87
2022-10-21T12:54:13.423Z,97.14
2022-10-21T12:56:47.702Z,97.26
2022-10-21T12:59:28.438Z,96.85
2022-10-21T13:02:04.625Z,97.39
2022-10-21T13:04:31.709Z,97.39
2022-10-21T13:07:19.349Z,97.58
2022-10-21T13:09:50.745Z,97.98
2022-10-21T13:12:29.252Z,99.09
2022-10-21T13:15:22.186Z,99.33
2022-10-21T13:17:55.094Z,100.00
2022-10-21T13:20:22.187Z,99.50
2022-10-21T13:23:03.436Z,99.43
2022-10-21T13:25:35.222Z,99.63
2022-10-21T13:28:14.003Z,99.36
2022-10-21T13:30:58.526Z,99.98
2022-10-21T13:33:29.709Z,100.00
2022-10-21T13:36:24.970Z,100.00
2022-10-21T13:38:55.382Z,100.00
2022-10-21T13:41:27.118Z,100.00
2022-10-21T13:44:06.331Z,100.00
2022-10-21T13:46:43.603Z,100.00
2022-10-21T13:49:32.934Z,100.00
2022-10-21T13:52:00.042Z,100.00
2022-10-21T13:54:34.863Z,100.00
2022-10-21T13:57:08.351Z,100.00
2022-10-21T13:59:35.338Z,100.00
2022-10-21T14:02:03.816Z,100.00
2022-10-21T14:04:33.490Z,100.00
2022-10-21T14:07:04.686Z,100.00
2022-10-21T14:09:45.265Z,100.00
2022-10-21T14:12:21.854Z,100.00
2022-10-21T14:14:51.690Z,100.00
2022-10-21T14:17:22.490Z,100.00
2022-10-21T14:20:05.481Z,100.00
2022-10-21T14:22:33.229Z,100.00
2022-10-21T14:25:04.484Z,100.00
2022-10-21T14:27:34.153Z,100.00
2022-10-21T14:30:04.253Z,100.00
2022-10-21T14:32:32.078Z,100.00
2022-10-21T14:35:11.283Z,100.00
2022-10-21T14:37:48.548Z,100.00
2022-10-21T14:40:26.189Z,100.00
2022-10-21T14:42:55.083Z,100.00
2022-10-21T14:45:34.762Z,100.00
2022-10-21T14:48:11.694Z,100.00
2022-10-21T14:50:41.407Z,100.00
2022-10-21T14:53:19.182Z,100.00
2022-10-21T14:55:48.574Z,100.00
2022-10-21T14:58:22.876Z,100.00
2022-10-21T15:01:07.121Z,100.00
2022-10-21T15:03:38.580Z,100.00
2022-10-21T15:06:17.855Z,100.00
2022-10-21T15:09:10.748Z,100.00
2022-10-21T15:11:42.356Z,100.00
2022-10-21T15:14:12.246Z,100.00
2022-10-21T15:16:53.579Z,100.00
2022-10-21T15:19:25.223Z,100.00
2022-10-21T15:22:01.557Z,100.00
2022-10-21T15:24:34.067Z,100.00
2022-10-21T15:27:02.290Z,100.00
2022-10-21T15:29:36.070Z,100.00
2022-10-21T15:32:05.845Z,100.00
2022-10-21T15:34:33.028Z,100.00
2022-10-21T15:37:00.512Z,100.00
2022-10-21T15:39:28.748Z,100.00
2022-10-21T15:41:57.506Z,100.00
2022-10-21T15:44:28.023Z,100.00
2022-10-21T15:47:00.262Z,100.00
2022-10-21T15:49:32.375Z,100.00
2022-10-21T15:52:00.210Z,100.00
2022-10-21T15:54:27.302Z,100.00
2022-10-21T15:56:55.278Z,100.00
2022-10-21T15:59:24.484Z,100.00
2022-10-21T16:01:52.500Z,100.00
2022-10-21T16:04:20.587Z,100.00
2022-10-21T16:06:49.555Z,100.00
2022-10-21T16:09:25.919Z,100.00
2022-10-21T16:11:59.223Z,100.00
2022-10-21T16:14:29.395Z,100.00
2022-10-21T16:17:00.648Z,100.00
2022-10-21T16:19:28.847Z,100.00
2022-10-21T16:21:56.649Z,100.00
2022-10-21T16:24:23.770Z,100.00
2022-10-21T16:26:51.076Z,100.00
2022-10-21T16:29:24.248Z,100.00
2022-10-21T16:31:52.045Z,100.00
2022-10-21T16:34:19.590Z,100.00
2022-10-21T16:36:46.769Z,100.00
2022-10-21T16:39:16.805Z,100.00
2022-10-21T16:41:43.935Z,100.00
2022-10-21T16:44:11.185Z,100.00
2022-10-21T16:46:56.494Z,100.00
2022-10-21T16:49:27.891Z,100.00
2022-10-21T16:51:57.381Z,100.00
2022-10-21T16:54:24.546Z,100.00
2022-10-21T16:56:54.878Z,100.00
2022-10-21T16:59:23.579Z,100.00
2022-10-21T17:01:51.527Z,100.00
2022-10-21T17:04:18.776Z,100.00
2022-10-21T17:06:45.887Z,100.00
2022-10-21T17:09:13.185Z,100.00
2022-10-21T17:11:42.246Z,100.00
2022-10-21T17:14:16.229Z,100.00
2022-10-21T17:16:45.299Z,100.00
2022-10-21T17:19:14.520Z,100.00
2022-10-21T17:21:41.763Z,100.00
2022-10-21T17:24:13.796Z,100.00
2022-10-21T17:26:41.404Z,100.00
2022-10-21T17:29:10.762Z,100.00
2022-10-21T17:31:40.834Z,100.00
2022-10-21T17:34:24.450Z,100.00
2022-10-21T17:36:51.704Z,100.00
2022-10-21T17:39:18.811Z,100.00
2022-10-21T17:44:18.413Z,100.00
2022-10-21T17:46:47.571Z,100.00
2022-10-21T17:49:15.148Z,100.00
2022-10-21T17:51:42.282Z,100.00
2022-10-21T17:54:10.141Z,100.00
2022-10-21T17:56:37.278Z,100.00
2022-10-21T17:59:04.503Z,100.00
2022-10-21T18:01:31.780Z,100.00
2022-10-21T18:04:02.022Z,100.00
2022-10-21T18:06:29.278Z,100.00
2022-10-21T18:08:58.127Z,100.00
2022-10-21T18:11:25.760Z,100.00
2022-10-21T18:13:55.238Z,100.00
2022-10-21T18:16:24.322Z,100.00
2022-10-21T18:18:55.227Z,100.00
2022-10-21T18:21:24.648Z,100.00
2022-10-21T18:23:53.453Z,100.00
2022-10-21T18:26:31.301Z,100.00
2022-10-21T18:29:03.018Z,100.00
2022-10-21T18:31:34.408Z,100.00
2022-10-21T18:34:03.939Z,100.00
2022-10-21T18:36:32.076Z,100.00
2022-10-21T18:39:01.150Z,100.00
2022-10-21T18:41:28.463Z,100.00
2022-10-21T18:44:01.207Z,100.00
2022-10-21T18:46:29.799Z,100.00
2022-10-21T18:48:57.795Z,100.00
2022-10-21T18:51:25.301Z,100.00
2022-10-21T18:53:53.378Z,100.00
2022-10-21T18:56:22.234Z,100.00
2022-10-21T18:58:50.078Z,100.00
2022-10-21T19:01:18.553Z,100.00
2022-10-21T19:03:45.954Z,100.00
2022-10-21T19:06:32.142Z,100.00
2022-10-21T19:09:01.156Z,100.00
2022-10-21T19:11:28.974Z,100.00
2022-10-21T19:13:56.331Z,100.00
2022-10-21T19:16:23.583Z,100.00
2022-10-21T19:18:51.274Z,100.00
2022-10-21T19:21:19.782Z,100.00
2022-10-21T19:23:47.029Z,100.00
2022-10-21T19:26:14.934Z,100.00
2022-10-21T19:28:42.193Z,100.00
2022-10-21T19:31:11.483Z,100.00
2022-10-21T19:33:39.214Z,100.00
2022-10-21T19:36:08.103Z,100.00
2022-10-21T19:38:50.804Z,100.00
2022-10-21T19:41:22.483Z,100.00
2022-10-21T19:43:53.126Z,100.00
2022-10-21T19:46:24.912Z,100.00
2022-10-21T19:48:53.654Z,100.00
2022-10-21T19:51:23.134Z,100.00
2022-10-21T19:53:51.245Z,100.00
2022-10-21T19:56:22.199Z,100.00
2022-10-21T19:58:54.698Z,100.00
2022-10-21T20:01:24.964Z,100.00
2022-10-21T20:03:53.398Z,100.00
2022-10-21T20:06:25.226Z,100.00
2022-10-21T20:08:58.107Z,100.00
2022-10-21T20:11:25.750Z,100.00
2022-10-21T20:13:52.927Z,100.00
2022-10-21T20:16:21.825Z,100.00
2022-10-21T20:18:49.584Z,100.00
2022-10-21T20:21:16.867Z,100.00
2022-10-21T20:23:44.053Z,100.00
2022-10-21T20:26:11.470Z,100.00
2022-10-21T20:28:38.867Z,100.00
2022-10-21T20:31:09.150Z,100.00
2022-10-21T20:33:40.344Z,100.00
2022-10-21T20:36:17.867Z,100.00
2022-10-21T20:38:46.099Z,100.00
2022-10-21T20:41:23.568Z,100.00
2022-10-21T20:43:51.864Z,100.00
2022-10-21T20:46:21.814Z,100.00
2022-10-21T20:48:50.488Z,99.90
2022-10-21T20:51:27.026Z,97.88
2022-10-21T20:53:57.313Z,98.26
2022-10-21T20:56:33.876Z,97.29
2022-10-21T20:59:01.638Z,95.85
2022-10-21T21:01:34.808Z,94.56
2022-10-21T21:04:08.361Z,95.03
2022-10-21T21:06:37.378Z,96.90
2022-10-21T21:11:51.934Z,97.78
2022-10-21T21:14:19.127Z,98.13
2022-10-21T21:16:46.277Z,97.90
2022-10-21T21:19:14.349Z,96.64
2022-10-21T21:21:41.662Z,96.18
2022-10-21T21:24:08.865Z,94.78
2022-10-21T21:26:38.458Z,92.58
2022-10-21T21:29:07.529Z,91.11
2022-10-21T21:31:37.090Z,90.31
2022-10-21T21:34:05.378Z,89.19
2022-10-21T21:36:32.800Z,87.53
2022-10-21T21:39:00.095Z,86.76
2022-10-21T21:41:27.298Z,86.07
2022-10-21T21:43:56.555Z,85.59
2022-10-21T21:46:24.971Z,84.71
2022-10-21T21:48:59.571Z,84.12
2022-10-21T21:51:29.362Z,83.86
2022-10-21T21:53:57.218Z,83.82
2022-10-21T21:56:25.362Z,83.63
2022-10-21T21:58:54.971Z,82.71
2022-10-21T22:01:25.398Z,82.59
2022-10-21T22:03:53.207Z,82.10
2022-10-21T22:06:22.768Z,81.70
2022-10-21T22:08:51.016Z,81.35
2022-10-21T22:11:22.455Z,81.07
2022-10-21T22:13:49.936Z,80.72
2022-10-21T22:16:18.678Z,80.27
2022-10-21T22:18:45.838Z,79.69
2022-10-21T22:21:16.560Z,79.37
2022-10-21T22:23:45.196Z,79.34
2022-10-21T22:26:13.611Z,79.52
2022-10-21T22:28:41.450Z,78.27
2022-10-21T22:31:12.040Z,78.78
2022-10-21T22:33:40.213Z,78.23
2022-10-21T22:36:08.082Z,77.76
2022-10-21T22:38:35.194Z,78.00
2022-10-21T22:41:06.123Z,77.93
2022-10-21T22:43:35.654Z,77.26
2022-10-21T22:46:09.706Z,77.02
2022-10-21T22:48:49.023Z,77.29
2022-10-21T22:51:16.142Z,77.17
2022-10-21T22:53:43.271Z,77.05
2022-10-21T22:56:10.436Z,77.18
2022-10-21T22:58:37.622Z,77.16
2022-10-21T23:01:09.678Z,77.02
2022-10-21T23:03:37.031Z,76.90
2022-10-21T23:06:04.459Z,76.85
2022-10-21T23:08:31.795Z,76.83
2022-10-21T23:10:58.979Z,77.03
2022-10-21T23:13:26.214Z,77.59
2022-10-21T23:15:53.322Z,77.47
2022-10-21T23:18:20.522Z,77.33
2022-10-21T23:20:47.697Z,77.24
2022-10-21T23:23:14.830Z,77.65
2022-10-21T23:25:41.937Z,77.09
2022-10-21T23:28:09.725Z,77.72
2022-10-21T23:30:38.273Z,77.76
2022-10-21T23:33:05.386Z,78.00
2022-10-21T23:35:32.867Z,78.52
2022-10-21T23:38:00.138Z,78.50
2022-10-21T23:40:28.185Z,78.27
2022-10-21T23:42:55.294Z,78.43
2022-10-21T23:45:22.540Z,78.32
2022-10-21T23:47:49.927Z,78.28
2022-10-21T23:50:17.157Z,77.73
2022-10-21T23:52:44.385Z,78.18
2022-10-21T23:55:11.498Z,78.21
2022-10-21T23:57:39.288Z,78.15
